sensor_id;sensor_type;location;lat;lon;timestamp;P1;durP1;ratioP1;P2;durP2;ratioP2
31126;SDS011;17775;57.948;12.514;2023-06-24T00:02:20;17.05;;;9.73;;
31126;SDS011;17775;57.948;12.514;2023-06-24T00:04:50;20.47;;;9.47;;
31126;SDS011;17775;57.948;12.514;2023-06-24T00:07:18;23.02;;;10.10;;
31126;SDS011;17775;57.948;12.514;2023-06-24T00:09:48;23.77;;;9.70;;
31126;SDS011;17775;57.948;12.514;2023-06-24T00:12:15;19.80;;;9.48;;
31126;SDS011;17775;57.948;12.514;2023-06-24T00:14:49;17.65;;;9.18;;
31126;SDS011;17775;57.948;12.514;2023-06-24T00:17:17;23.95;;;10.68;;
31126;SDS011;17775;57.948;12.514;2023-06-24T00:19:43;20.58;;;8.93;;
31126;SDS011;17775;57.948;12.514;2023-06-24T00:22:10;19.83;;;9.80;;
31126;SDS011;17775;57.948;12.514;2023-06-24T00:24:40;19.43;;;10.27;;
31126;SDS011;17775;57.948;12.514;2023-06-24T00:27:09;20.42;;;9.43;;
31126;SDS011;17775;57.948;12.514;2023-06-24T00:29:35;19.92;;;9.68;;
31126;SDS011;17775;57.948;12.514;2023-06-24T00:32:02;20.23;;;9.77;;
31126;SDS011;17775;57.948;12.514;2023-06-24T00:34:29;19.33;;;10.38;;
31126;SDS011;17775;57.948;12.514;2023-06-24T00:36:55;22.23;;;10.50;;
31126;SDS011;17775;57.948;12.514;2023-06-24T00:39:22;21.38;;;9.80;;
31126;SDS011;17775;57.948;12.514;2023-06-24T00:41:50;18.63;;;9.35;;
31126;SDS011;17775;57.948;12.514;2023-06-24T00:44:16;17.58;;;8.95;;
31126;SDS011;17775;57.948;12.514;2023-06-24T00:46:43;22.02;;;9.85;;
31126;SDS011;17775;57.948;12.514;2023-06-24T00:49:09;22.52;;;11.13;;
31126;SDS011;17775;57.948;12.514;2023-06-24T00:51:40;14.95;;;9.00;;
31126;SDS011;17775;57.948;12.514;2023-06-24T00:54:13;19.70;;;10.35;;
31126;SDS011;17775;57.948;12.514;2023-06-24T00:56:40;23.83;;;10.40;;
31126;SDS011;17775;57.948;12.514;2023-06-24T00:59:10;21.60;;;9.40;;
31126;SDS011;17775;57.948;12.514;2023-06-24T01:01:40;21.08;;;9.63;;
31126;SDS011;17775;57.948;12.514;2023-06-24T01:04:07;21.13;;;9.02;;
31126;SDS011;17775;57.948;12.514;2023-06-24T01:06:34;21.38;;;10.13;;
31126;SDS011;17775;57.948;12.514;2023-06-24T01:09:01;18.10;;;8.85;;
31126;SDS011;17775;57.948;12.514;2023-06-24T01:11:29;16.58;;;9.20;;
31126;SDS011;17775;57.948;12.514;2023-06-24T01:13:56;24.15;;;10.63;;
31126;SDS011;17775;57.948;12.514;2023-06-24T01:19:33;27.02;;;10.95;;
31126;SDS011;17775;57.948;12.514;2023-06-24T01:24:31;22.17;;;9.73;;
31126;SDS011;17775;57.948;12.514;2023-06-24T01:34:59;21.15;;;9.27;;
31126;SDS011;17775;57.948;12.514;2023-06-24T01:40:10;23.08;;;11.00;;
31126;SDS011;17775;57.948;12.514;2023-06-24T01:42:41;19.50;;;9.75;;
31126;SDS011;17775;57.948;12.514;2023-06-24T01:45:15;24.92;;;10.57;;
31126;SDS011;17775;57.948;12.514;2023-06-24T01:47:43;25.92;;;11.68;;
31126;SDS011;17775;57.948;12.514;2023-06-24T01:50:11;22.08;;;10.32;;
31126;SDS011;17775;57.948;12.514;2023-06-24T01:52:43;23.83;;;10.35;;
31126;SDS011;17775;57.948;12.514;2023-06-24T01:55:11;21.02;;;9.38;;
31126;SDS011;17775;57.948;12.514;2023-06-24T01:57:38;21.33;;;9.35;;
31126;SDS011;17775;57.948;12.514;2023-06-24T02:00:07;19.50;;;9.80;;
31126;SDS011;17775;57.948;12.514;2023-06-24T02:02:35;21.48;;;9.55;;
31126;SDS011;17775;57.948;12.514;2023-06-24T02:05:02;27.77;;;10.07;;
31126;SDS011;17775;57.948;12.514;2023-06-24T02:07:31;18.85;;;10.80;;
31126;SDS011;17775;57.948;12.514;2023-06-24T02:09:58;24.75;;;10.50;;
31126;SDS011;17775;57.948;12.514;2023-06-24T02:12:26;22.73;;;10.32;;
31126;SDS011;17775;57.948;12.514;2023-06-24T02:14:54;15.75;;;9.25;;
31126;SDS011;17775;57.948;12.514;2023-06-24T02:17:21;21.35;;;10.02;;
31126;SDS011;17775;57.948;12.514;2023-06-24T02:19:48;18.85;;;9.18;;
31126;SDS011;17775;57.948;12.514;2023-06-24T02:22:14;19.23;;;9.32;;
31126;SDS011;17775;57.948;12.514;2023-06-24T02:24:41;18.67;;;10.13;;
31126;SDS011;17775;57.948;12.514;2023-06-24T02:27:08;19.08;;;9.80;;
31126;SDS011;17775;57.948;12.514;2023-06-24T02:29:35;20.75;;;8.93;;
31126;SDS011;17775;57.948;12.514;2023-06-24T02:32:02;24.30;;;10.38;;
31126;SDS011;17775;57.948;12.514;2023-06-24T02:34:29;19.83;;;9.60;;
31126;SDS011;17775;57.948;12.514;2023-06-24T02:36:55;20.83;;;10.57;;
31126;SDS011;17775;57.948;12.514;2023-06-24T02:39:22;16.92;;;9.60;;
31126;SDS011;17775;57.948;12.514;2023-06-24T02:41:49;20.67;;;10.10;;
31126;SDS011;17775;57.948;12.514;2023-06-24T02:44:16;26.55;;;10.77;;
31126;SDS011;17775;57.948;12.514;2023-06-24T02:46:43;19.60;;;11.27;;
31126;SDS011;17775;57.948;12.514;2023-06-24T02:49:10;21.80;;;10.60;;
31126;SDS011;17775;57.948;12.514;2023-06-24T02:51:39;16.95;;;10.55;;
31126;SDS011;17775;57.948;12.514;2023-06-24T02:54:06;18.60;;;11.05;;
31126;SDS011;17775;57.948;12.514;2023-06-24T02:56:33;17.83;;;10.68;;
31126;SDS011;17775;57.948;12.514;2023-06-24T02:59:00;17.38;;;9.93;;
31126;SDS011;17775;57.948;12.514;2023-06-24T03:01:27;18.83;;;9.70;;
31126;SDS011;17775;57.948;12.514;2023-06-24T03:03:54;21.30;;;9.93;;
31126;SDS011;17775;57.948;12.514;2023-06-24T03:06:21;20.38;;;10.00;;
31126;SDS011;17775;57.948;12.514;2023-06-24T03:08:48;20.05;;;10.82;;
31126;SDS011;17775;57.948;12.514;2023-06-24T03:11:15;21.55;;;10.13;;
31126;SDS011;17775;57.948;12.514;2023-06-24T03:13:42;19.75;;;9.40;;
31126;SDS011;17775;57.948;12.514;2023-06-24T03:16:09;24.05;;;10.13;;
31126;SDS011;17775;57.948;12.514;2023-06-24T03:18:41;23.45;;;10.23;;
31126;SDS011;17775;57.948;12.514;2023-06-24T03:21:08;18.77;;;8.95;;
31126;SDS011;17775;57.948;12.514;2023-06-24T03:23:35;19.58;;;10.57;;
31126;SDS011;17775;57.948;12.514;2023-06-24T03:26:01;18.58;;;10.32;;
31126;SDS011;17775;57.948;12.514;2023-06-24T03:28:29;18.25;;;8.93;;
31126;SDS011;17775;57.948;12.514;2023-06-24T03:30:57;19.73;;;9.57;;
31126;SDS011;17775;57.948;12.514;2023-06-24T03:33:23;18.75;;;9.07;;
31126;SDS011;17775;57.948;12.514;2023-06-24T03:35:51;15.82;;;10.35;;
31126;SDS011;17775;57.948;12.514;2023-06-24T03:38:17;20.63;;;9.25;;
31126;SDS011;17775;57.948;12.514;2023-06-24T03:40:44;19.25;;;9.40;;
31126;SDS011;17775;57.948;12.514;2023-06-24T03:43:10;17.08;;;9.50;;
31126;SDS011;17775;57.948;12.514;2023-06-24T03:45:37;19.17;;;9.60;;
31126;SDS011;17775;57.948;12.514;2023-06-24T03:48:05;22.42;;;9.85;;
31126;SDS011;17775;57.948;12.514;2023-06-24T03:50:32;18.20;;;9.25;;
31126;SDS011;17775;57.948;12.514;2023-06-24T03:52:59;18.55;;;9.93;;
31126;SDS011;17775;57.948;12.514;2023-06-24T03:55:25;17.30;;;9.90;;
31126;SDS011;17775;57.948;12.514;2023-06-24T03:57:51;18.55;;;9.82;;
31126;SDS011;17775;57.948;12.514;2023-06-24T04:00:18;15.60;;;8.98;;
31126;SDS011;17775;57.948;12.514;2023-06-24T04:02:47;19.02;;;9.85;;
31126;SDS011;17775;57.948;12.514;2023-06-24T04:05:14;19.33;;;9.45;;
31126;SDS011;17775;57.948;12.514;2023-06-24T04:07:40;21.15;;;9.68;;
31126;SDS011;17775;57.948;12.514;2023-06-24T04:10:08;18.67;;;9.63;;
31126;SDS011;17775;57.948;12.514;2023-06-24T04:12:38;21.00;;;10.20;;
31126;SDS011;17775;57.948;12.514;2023-06-24T04:15:05;21.70;;;10.20;;
31126;SDS011;17775;57.948;12.514;2023-06-24T04:17:31;23.95;;;10.25;;
31126;SDS011;17775;57.948;12.514;2023-06-24T04:19:58;22.63;;;9.27;;
31126;SDS011;17775;57.948;12.514;2023-06-24T04:22:25;22.27;;;9.55;;
31126;SDS011;17775;57.948;12.514;2023-06-24T04:24:51;18.67;;;10.05;;
31126;SDS011;17775;57.948;12.514;2023-06-24T04:27:18;18.23;;;10.02;;
31126;SDS011;17775;57.948;12.514;2023-06-24T04:29:44;22.20;;;9.75;;
31126;SDS011;17775;57.948;12.514;2023-06-24T04:32:13;23.77;;;9.90;;
31126;SDS011;17775;57.948;12.514;2023-06-24T04:34:39;19.05;;;9.68;;
31126;SDS011;17775;57.948;12.514;2023-06-24T04:37:06;21.50;;;10.50;;
31126;SDS011;17775;57.948;12.514;2023-06-24T04:39:33;20.40;;;9.48;;
31126;SDS011;17775;57.948;12.514;2023-06-24T04:41:59;21.27;;;10.27;;
31126;SDS011;17775;57.948;12.514;2023-06-24T04:44:26;21.75;;;9.25;;
31126;SDS011;17775;57.948;12.514;2023-06-24T04:46:52;21.13;;;9.95;;
31126;SDS011;17775;57.948;12.514;2023-06-24T04:49:19;21.75;;;9.88;;
31126;SDS011;17775;57.948;12.514;2023-06-24T04:51:46;23.00;;;9.68;;
31126;SDS011;17775;57.948;12.514;2023-06-24T04:54:12;22.15;;;10.90;;
31126;SDS011;17775;57.948;12.514;2023-06-24T04:56:39;18.45;;;9.55;;
31126;SDS011;17775;57.948;12.514;2023-06-24T04:59:06;18.70;;;9.80;;
31126;SDS011;17775;57.948;12.514;2023-06-24T05:01:32;21.83;;;10.20;;
31126;SDS011;17775;57.948;12.514;2023-06-24T05:03:59;19.85;;;10.93;;
31126;SDS011;17775;57.948;12.514;2023-06-24T05:06:25;21.17;;;10.00;;
31126;SDS011;17775;57.948;12.514;2023-06-24T05:08:52;15.15;;;8.57;;
31126;SDS011;17775;57.948;12.514;2023-06-24T05:11:21;17.27;;;8.93;;
31126;SDS011;17775;57.948;12.514;2023-06-24T05:13:48;17.90;;;9.85;;
31126;SDS011;17775;57.948;12.514;2023-06-24T05:16:14;18.77;;;8.32;;
31126;SDS011;17775;57.948;12.514;2023-06-24T05:18:43;18.42;;;9.27;;
31126;SDS011;17775;57.948;12.514;2023-06-24T05:21:10;23.52;;;9.07;;
31126;SDS011;17775;57.948;12.514;2023-06-24T05:23:37;17.50;;;8.68;;
31126;SDS011;17775;57.948;12.514;2023-06-24T05:26:03;16.45;;;8.40;;
31126;SDS011;17775;57.948;12.514;2023-06-24T05:28:32;14.38;;;8.43;;
31126;SDS011;17775;57.948;12.514;2023-06-24T05:30:59;16.80;;;8.00;;
31126;SDS011;17775;57.948;12.514;2023-06-24T05:33:26;18.70;;;8.30;;
31126;SDS011;17775;57.948;12.514;2023-06-24T05:35:52;19.33;;;8.82;;
31126;SDS011;17775;57.948;12.514;2023-06-24T05:38:18;20.67;;;8.07;;
31126;SDS011;17775;57.948;12.514;2023-06-24T05:40:45;15.20;;;7.97;;
31126;SDS011;17775;57.948;12.514;2023-06-24T05:43:11;14.43;;;8.00;;
31126;SDS011;17775;57.948;12.514;2023-06-24T05:45:38;11.40;;;7.55;;
31126;SDS011;17775;57.948;12.514;2023-06-24T05:48:04;16.13;;;8.65;;
31126;SDS011;17775;57.948;12.514;2023-06-24T05:50:31;21.48;;;9.07;;
31126;SDS011;17775;57.948;12.514;2023-06-24T05:52:58;15.40;;;7.32;;
31126;SDS011;17775;57.948;12.514;2023-06-24T05:55:24;18.02;;;8.18;;
31126;SDS011;17775;57.948;12.514;2023-06-24T05:57:51;16.92;;;8.05;;
31126;SDS011;17775;57.948;12.514;2023-06-24T06:00:17;16.58;;;7.68;;
31126;SDS011;17775;57.948;12.514;2023-06-24T06:02:44;14.50;;;6.90;;
31126;SDS011;17775;57.948;12.514;2023-06-24T06:05:10;13.82;;;7.28;;
31126;SDS011;17775;57.948;12.514;2023-06-24T06:07:37;16.70;;;6.97;;
31126;SDS011;17775;57.948;12.514;2023-06-24T06:10:05;13.55;;;6.80;;
31126;SDS011;17775;57.948;12.514;2023-06-24T06:12:32;14.35;;;6.88;;
31126;SDS011;17775;57.948;12.514;2023-06-24T06:14:59;21.45;;;8.10;;
31126;SDS011;17775;57.948;12.514;2023-06-24T06:17:25;14.13;;;6.82;;
31126;SDS011;17775;57.948;12.514;2023-06-24T06:19:52;17.40;;;7.70;;
31126;SDS011;17775;57.948;12.514;2023-06-24T06:22:18;17.20;;;7.15;;
31126;SDS011;17775;57.948;12.514;2023-06-24T06:24:45;17.05;;;7.43;;
31126;SDS011;17775;57.948;12.514;2023-06-24T06:27:12;19.38;;;7.75;;
31126;SDS011;17775;57.948;12.514;2023-06-24T06:29:41;17.02;;;7.60;;
31126;SDS011;17775;57.948;12.514;2023-06-24T06:32:07;13.07;;;6.50;;
31126;SDS011;17775;57.948;12.514;2023-06-24T06:34:34;17.98;;;7.18;;
31126;SDS011;17775;57.948;12.514;2023-06-24T06:37:00;16.92;;;6.90;;
31126;SDS011;17775;57.948;12.514;2023-06-24T06:39:27;17.65;;;7.35;;
31126;SDS011;17775;57.948;12.514;2023-06-24T06:41:53;14.75;;;7.05;;
31126;SDS011;17775;57.948;12.514;2023-06-24T06:44:20;14.60;;;7.18;;
31126;SDS011;17775;57.948;12.514;2023-06-24T06:46:46;16.73;;;7.30;;
31126;SDS011;17775;57.948;12.514;2023-06-24T06:49:13;16.63;;;7.35;;
31126;SDS011;17775;57.948;12.514;2023-06-24T06:51:40;17.17;;;7.50;;
31126;SDS011;17775;57.948;12.514;2023-06-24T06:54:06;16.67;;;6.97;;
31126;SDS011;17775;57.948;12.514;2023-06-24T06:56:33;17.40;;;7.78;;
31126;SDS011;17775;57.948;12.514;2023-06-24T06:58:59;17.80;;;7.63;;
31126;SDS011;17775;57.948;12.514;2023-06-24T07:01:25;16.70;;;6.93;;
31126;SDS011;17775;57.948;12.514;2023-06-24T07:03:52;13.38;;;6.75;;
31126;SDS011;17775;57.948;12.514;2023-06-24T07:06:19;14.70;;;6.65;;
31126;SDS011;17775;57.948;12.514;2023-06-24T07:08:45;13.30;;;6.25;;
31126;SDS011;17775;57.948;12.514;2023-06-24T07:11:12;14.38;;;6.85;;
31126;SDS011;17775;57.948;12.514;2023-06-24T07:13:38;13.55;;;6.45;;
31126;SDS011;17775;57.948;12.514;2023-06-24T07:16:05;15.07;;;7.13;;
31126;SDS011;17775;57.948;12.514;2023-06-24T07:18:31;13.23;;;6.45;;
31126;SDS011;17775;57.948;12.514;2023-06-24T07:20:59;14.05;;;6.50;;
31126;SDS011;17775;57.948;12.514;2023-06-24T07:23:26;10.73;;;6.05;;
31126;SDS011;17775;57.948;12.514;2023-06-24T07:25:55;14.98;;;6.70;;
31126;SDS011;17775;57.948;12.514;2023-06-24T07:28:22;13.95;;;6.88;;
31126;SDS011;17775;57.948;12.514;2023-06-24T07:30:48;12.18;;;6.22;;
31126;SDS011;17775;57.948;12.514;2023-06-24T07:33:15;12.63;;;6.63;;
31126;SDS011;17775;57.948;12.514;2023-06-24T07:35:42;14.02;;;6.82;;
31126;SDS011;17775;57.948;12.514;2023-06-24T07:38:08;14.45;;;6.38;;
31126;SDS011;17775;57.948;12.514;2023-06-24T07:40:35;14.77;;;6.45;;
31126;SDS011;17775;57.948;12.514;2023-06-24T07:43:01;12.35;;;5.65;;
31126;SDS011;17775;57.948;12.514;2023-06-24T07:45:30;14.88;;;6.07;;
31126;SDS011;17775;57.948;12.514;2023-06-24T07:47:56;11.55;;;5.75;;
31126;SDS011;17775;57.948;12.514;2023-06-24T07:50:23;11.57;;;6.03;;
31126;SDS011;17775;57.948;12.514;2023-06-24T07:52:50;12.70;;;5.90;;
31126;SDS011;17775;57.948;12.514;2023-06-24T07:55:16;11.75;;;5.60;;
31126;SDS011;17775;57.948;12.514;2023-06-24T07:57:46;10.18;;;5.43;;
31126;SDS011;17775;57.948;12.514;2023-06-24T08:00:13;13.35;;;6.00;;
31126;SDS011;17775;57.948;12.514;2023-06-24T08:02:41;11.90;;;6.30;;
31126;SDS011;17775;57.948;12.514;2023-06-24T08:05:08;8.38;;;4.88;;
31126;SDS011;17775;57.948;12.514;2023-06-24T08:07:35;14.05;;;5.47;;
31126;SDS011;17775;57.948;12.514;2023-06-24T08:10:02;9.43;;;5.18;;
31126;SDS011;17775;57.948;12.514;2023-06-24T08:12:29;10.20;;;4.85;;
31126;SDS011;17775;57.948;12.514;2023-06-24T08:14:55;8.73;;;5.13;;
31126;SDS011;17775;57.948;12.514;2023-06-24T08:17:22;10.65;;;5.18;;
31126;SDS011;17775;57.948;12.514;2023-06-24T08:19:48;10.85;;;5.00;;
31126;SDS011;17775;57.948;12.514;2023-06-24T08:22:15;11.45;;;4.95;;
31126;SDS011;17775;57.948;12.514;2023-06-24T08:24:41;12.57;;;5.35;;
31126;SDS011;17775;57.948;12.514;2023-06-24T08:27:08;8.05;;;5.05;;
31126;SDS011;17775;57.948;12.514;2023-06-24T08:29:34;12.15;;;4.88;;
31126;SDS011;17775;57.948;12.514;2023-06-24T08:32:01;9.40;;;4.85;;
31126;SDS011;17775;57.948;12.514;2023-06-24T08:34:27;13.70;;;5.03;;
31126;SDS011;17775;57.948;12.514;2023-06-24T08:36:54;9.07;;;5.20;;
31126;SDS011;17775;57.948;12.514;2023-06-24T08:39:20;11.43;;;5.35;;
31126;SDS011;17775;57.948;12.514;2023-06-24T08:41:47;12.27;;;5.20;;
31126;SDS011;17775;57.948;12.514;2023-06-24T08:44:13;11.65;;;5.20;;
31126;SDS011;17775;57.948;12.514;2023-06-24T08:46:40;10.77;;;5.93;;
31126;SDS011;17775;57.948;12.514;2023-06-24T08:51:35;10.23;;;5.30;;
31126;SDS011;17775;57.948;12.514;2023-06-24T08:54:03;10.67;;;5.57;;
31126;SDS011;17775;57.948;12.514;2023-06-24T08:56:31;9.70;;;5.47;;
31126;SDS011;17775;57.948;12.514;2023-06-24T08:58:57;19.83;;;5.47;;
31126;SDS011;17775;57.948;12.514;2023-06-24T09:01:25;9.05;;;4.90;;
31126;SDS011;17775;57.948;12.514;2023-06-24T09:03:52;9.57;;;5.57;;
31126;SDS011;17775;57.948;12.514;2023-06-24T09:06:18;11.93;;;5.57;;
31126;SDS011;17775;57.948;12.514;2023-06-24T09:08:54;10.25;;;5.13;;
31126;SDS011;17775;57.948;12.514;2023-06-24T09:11:26;10.43;;;5.38;;
31126;SDS011;17775;57.948;12.514;2023-06-24T09:13:59;14.10;;;5.68;;
31126;SDS011;17775;57.948;12.514;2023-06-24T09:16:26;9.43;;;5.38;;
31126;SDS011;17775;57.948;12.514;2023-06-24T09:18:53;9.77;;;5.95;;
31126;SDS011;17775;57.948;12.514;2023-06-24T09:21:23;9.40;;;5.53;;
31126;SDS011;17775;57.948;12.514;2023-06-24T09:23:54;11.48;;;5.78;;
31126;SDS011;17775;57.948;12.514;2023-06-24T09:26:25;10.77;;;5.88;;
31126;SDS011;17775;57.948;12.514;2023-06-24T09:31:18;7.18;;;5.30;;
31126;SDS011;17775;57.948;12.514;2023-06-24T09:33:46;8.65;;;5.38;;
31126;SDS011;17775;57.948;12.514;2023-06-24T09:36:16;10.52;;;5.38;;
31126;SDS011;17775;57.948;12.514;2023-06-24T09:38:43;8.85;;;5.55;;
31126;SDS011;17775;57.948;12.514;2023-06-24T09:41:11;13.40;;;5.85;;
31126;SDS011;17775;57.948;12.514;2023-06-24T09:43:41;9.90;;;6.07;;
31126;SDS011;17775;57.948;12.514;2023-06-24T09:46:11;10.55;;;5.70;;
31126;SDS011;17775;57.948;12.514;2023-06-24T09:48:38;11.15;;;5.72;;
31126;SDS011;17775;57.948;12.514;2023-06-24T09:51:05;10.00;;;5.40;;
31126;SDS011;17775;57.948;12.514;2023-06-24T09:53:33;11.45;;;6.05;;
31126;SDS011;17775;57.948;12.514;2023-06-24T09:56:01;13.30;;;5.55;;
31126;SDS011;17775;57.948;12.514;2023-06-24T09:58:34;11.45;;;5.13;;
31126;SDS011;17775;57.948;12.514;2023-06-24T10:01:02;10.05;;;5.00;;
31126;SDS011;17775;57.948;12.514;2023-06-24T10:03:33;15.57;;;5.75;;
31126;SDS011;17775;57.948;12.514;2023-06-24T10:06:01;10.48;;;5.15;;
31126;SDS011;17775;57.948;12.514;2023-06-24T10:08:29;10.23;;;4.90;;
31126;SDS011;17775;57.948;12.514;2023-06-24T10:10:56;9.25;;;5.80;;
31126;SDS011;17775;57.948;12.514;2023-06-24T10:13:22;10.35;;;5.25;;
31126;SDS011;17775;57.948;12.514;2023-06-24T10:15:49;9.85;;;5.28;;
31126;SDS011;17775;57.948;12.514;2023-06-24T10:20:54;10.23;;;5.13;;
31126;SDS011;17775;57.948;12.514;2023-06-24T10:23:21;7.85;;;4.63;;
31126;SDS011;17775;57.948;12.514;2023-06-24T10:25:47;12.23;;;6.25;;
31126;SDS011;17775;57.948;12.514;2023-06-24T10:28:14;8.70;;;5.15;;
31126;SDS011;17775;57.948;12.514;2023-06-24T10:30:43;10.30;;;5.45;;
31126;SDS011;17775;57.948;12.514;2023-06-24T10:33:20;12.45;;;5.47;;
31126;SDS011;17775;57.948;12.514;2023-06-24T10:35:48;11.15;;;5.07;;
31126;SDS011;17775;57.948;12.514;2023-06-24T10:38:15;10.60;;;5.03;;
31126;SDS011;17775;57.948;12.514;2023-06-24T10:40:42;10.98;;;4.93;;
31126;SDS011;17775;57.948;12.514;2023-06-24T10:45:51;9.85;;;5.60;;
31126;SDS011;17775;57.948;12.514;2023-06-24T10:48:17;9.05;;;4.90;;
31126;SDS011;17775;57.948;12.514;2023-06-24T10:50:50;9.48;;;4.93;;
31126;SDS011;17775;57.948;12.514;2023-06-24T10:53:17;11.50;;;5.50;;
31126;SDS011;17775;57.948;12.514;2023-06-24T10:55:46;7.82;;;4.90;;
31126;SDS011;17775;57.948;12.514;2023-06-24T10:58:13;9.57;;;4.97;;
31126;SDS011;17775;57.948;12.514;2023-06-24T11:00:41;8.07;;;4.38;;
31126;SDS011;17775;57.948;12.514;2023-06-24T11:03:16;7.85;;;4.35;;
31126;SDS011;17775;57.948;12.514;2023-06-24T11:05:46;11.15;;;5.22;;
31126;SDS011;17775;57.948;12.514;2023-06-24T11:08:14;7.65;;;5.18;;
31126;SDS011;17775;57.948;12.514;2023-06-24T11:10:47;9.25;;;5.03;;
31126;SDS011;17775;57.948;12.514;2023-06-24T11:13:14;9.20;;;4.93;;
31126;SDS011;17775;57.948;12.514;2023-06-24T11:15:41;11.98;;;4.90;;
31126;SDS011;17775;57.948;12.514;2023-06-24T11:18:09;7.43;;;4.80;;
31126;SDS011;17775;57.948;12.514;2023-06-24T11:20:39;7.28;;;4.82;;
31126;SDS011;17775;57.948;12.514;2023-06-24T11:23:06;13.25;;;5.35;;
31126;SDS011;17775;57.948;12.514;2023-06-24T11:25:37;8.68;;;5.22;;
31126;SDS011;17775;57.948;12.514;2023-06-24T11:28:04;10.70;;;5.32;;
31126;SDS011;17775;57.948;12.514;2023-06-24T11:30:34;12.82;;;5.63;;
31126;SDS011;17775;57.948;12.514;2023-06-24T11:33:02;9.07;;;5.25;;
31126;SDS011;17775;57.948;12.514;2023-06-24T11:35:29;9.32;;;4.82;;
31126;SDS011;17775;57.948;12.514;2023-06-24T11:37:57;8.90;;;4.80;;
31126;SDS011;17775;57.948;12.514;2023-06-24T11:40:24;10.45;;;4.47;;
31126;SDS011;17775;57.948;12.514;2023-06-24T11:42:50;8.18;;;4.47;;
31126;SDS011;17775;57.948;12.514;2023-06-24T11:45:19;9.43;;;4.75;;
31126;SDS011;17775;57.948;12.514;2023-06-24T11:47:49;9.27;;;5.60;;
31126;SDS011;17775;57.948;12.514;2023-06-24T11:50:15;7.68;;;4.97;;
31126;SDS011;17775;57.948;12.514;2023-06-24T11:55:20;10.63;;;5.47;;
31126;SDS011;17775;57.948;12.514;2023-06-24T12:03:10;6.32;;;4.30;;
31126;SDS011;17775;57.948;12.514;2023-06-24T12:05:38;6.85;;;4.65;;
31126;SDS011;17775;57.948;12.514;2023-06-24T12:08:07;7.82;;;4.68;;
31126;SDS011;17775;57.948;12.514;2023-06-24T12:10:34;7.32;;;4.82;;
31126;SDS011;17775;57.948;12.514;2023-06-24T12:13:02;8.10;;;4.70;;
31126;SDS011;17775;57.948;12.514;2023-06-24T12:15:30;7.97;;;4.57;;
31126;SDS011;17775;57.948;12.514;2023-06-24T12:17:56;9.43;;;5.63;;
31126;SDS011;17775;57.948;12.514;2023-06-24T12:20:23;6.13;;;5.18;;
31126;SDS011;17775;57.948;12.514;2023-06-24T12:22:54;7.90;;;4.28;;
31126;SDS011;17775;57.948;12.514;2023-06-24T12:25:21;7.03;;;5.05;;
31126;SDS011;17775;57.948;12.514;2023-06-24T12:27:48;4.68;;;3.90;;
31126;SDS011;17775;57.948;12.514;2023-06-24T12:30:16;6.63;;;5.15;;
31126;SDS011;17775;57.948;12.514;2023-06-24T12:32:43;8.88;;;4.50;;
31126;SDS011;17775;57.948;12.514;2023-06-24T12:35:10;6.80;;;4.68;;
31126;SDS011;17775;57.948;12.514;2023-06-24T12:37:36;7.55;;;5.25;;
31126;SDS011;17775;57.948;12.514;2023-06-24T12:40:03;6.75;;;4.03;;
31126;SDS011;17775;57.948;12.514;2023-06-24T12:42:30;8.25;;;4.95;;
31126;SDS011;17775;57.948;12.514;2023-06-24T12:44:57;6.28;;;4.32;;
31126;SDS011;17775;57.948;12.514;2023-06-24T12:47:23;9.32;;;5.40;;
31126;SDS011;17775;57.948;12.514;2023-06-24T12:49:50;7.15;;;4.38;;
31126;SDS011;17775;57.948;12.514;2023-06-24T12:52:16;8.80;;;5.03;;
31126;SDS011;17775;57.948;12.514;2023-06-24T12:54:43;6.63;;;4.45;;
31126;SDS011;17775;57.948;12.514;2023-06-24T12:57:09;6.75;;;4.57;;
31126;SDS011;17775;57.948;12.514;2023-06-24T12:59:40;7.90;;;4.35;;
31126;SDS011;17775;57.948;12.514;2023-06-24T13:02:06;6.70;;;4.05;;
31126;SDS011;17775;57.948;12.514;2023-06-24T13:04:34;7.80;;;4.78;;
31126;SDS011;17775;57.948;12.514;2023-06-24T13:07:00;8.60;;;4.68;;
31126;SDS011;17775;57.948;12.514;2023-06-24T13:09:27;8.43;;;4.57;;
31126;SDS011;17775;57.948;12.514;2023-06-24T13:11:54;7.60;;;4.53;;
31126;SDS011;17775;57.948;12.514;2023-06-24T13:14:20;10.25;;;4.60;;
31126;SDS011;17775;57.948;12.514;2023-06-24T13:16:47;9.05;;;5.05;;
31126;SDS011;17775;57.948;12.514;2023-06-24T13:19:13;6.72;;;4.32;;
31126;SDS011;17775;57.948;12.514;2023-06-24T13:21:42;8.32;;;4.55;;
31126;SDS011;17775;57.948;12.514;2023-06-24T13:24:08;10.05;;;4.43;;
31126;SDS011;17775;57.948;12.514;2023-06-24T13:26:35;7.18;;;4.50;;
31126;SDS011;17775;57.948;12.514;2023-06-24T13:29:01;9.85;;;4.85;;
31126;SDS011;17775;57.948;12.514;2023-06-24T13:31:29;10.38;;;4.60;;
31126;SDS011;17775;57.948;12.514;2023-06-24T13:33:55;7.55;;;4.75;;
31126;SDS011;17775;57.948;12.514;2023-06-24T13:36:27;5.75;;;4.38;;
31126;SDS011;17775;57.948;12.514;2023-06-24T13:38:54;7.70;;;4.68;;
31126;SDS011;17775;57.948;12.514;2023-06-24T13:41:21;6.40;;;4.47;;
31126;SDS011;17775;57.948;12.514;2023-06-24T13:43:48;7.10;;;4.47;;
31126;SDS011;17775;57.948;12.514;2023-06-24T13:46:14;8.57;;;4.70;;
31126;SDS011;17775;57.948;12.514;2023-06-24T13:48:41;6.90;;;6.28;;
31126;SDS011;17775;57.948;12.514;2023-06-24T13:51:09;5.63;;;3.90;;
31126;SDS011;17775;57.948;12.514;2023-06-24T13:53:35;8.73;;;5.00;;
31126;SDS011;17775;57.948;12.514;2023-06-24T13:56:02;8.32;;;5.32;;
31126;SDS011;17775;57.948;12.514;2023-06-24T13:58:28;8.20;;;5.13;;
31126;SDS011;17775;57.948;12.514;2023-06-24T14:00:55;9.23;;;4.80;;
31126;SDS011;17775;57.948;12.514;2023-06-24T14:03:21;7.15;;;4.10;;
31126;SDS011;17775;57.948;12.514;2023-06-24T14:05:48;8.18;;;4.43;;
31126;SDS011;17775;57.948;12.514;2023-06-24T14:08:14;7.30;;;4.10;;
31126;SDS011;17775;57.948;12.514;2023-06-24T14:10:41;7.90;;;5.20;;
31126;SDS011;17775;57.948;12.514;2023-06-24T14:13:07;9.52;;;4.80;;
31126;SDS011;17775;57.948;12.514;2023-06-24T14:15:34;7.95;;;4.70;;
31126;SDS011;17775;57.948;12.514;2023-06-24T14:18:00;6.68;;;4.13;;
31126;SDS011;17775;57.948;12.514;2023-06-24T14:20:27;5.85;;;3.97;;
31126;SDS011;17775;57.948;12.514;2023-06-24T14:22:53;9.50;;;4.45;;
31126;SDS011;17775;57.948;12.514;2023-06-24T14:25:20;9.13;;;4.40;;
31126;SDS011;17775;57.948;12.514;2023-06-24T14:27:46;5.97;;;3.65;;
31126;SDS011;17775;57.948;12.514;2023-06-24T14:30:13;6.97;;;3.88;;
31126;SDS011;17775;57.948;12.514;2023-06-24T14:32:42;7.57;;;3.90;;
31126;SDS011;17775;57.948;12.514;2023-06-24T14:35:09;8.43;;;3.70;;
31126;SDS011;17775;57.948;12.514;2023-06-24T14:37:35;7.30;;;3.70;;
31126;SDS011;17775;57.948;12.514;2023-06-24T14:40:02;5.32;;;3.53;;
31126;SDS011;17775;57.948;12.514;2023-06-24T14:42:28;10.02;;;4.05;;
31126;SDS011;17775;57.948;12.514;2023-06-24T14:44:55;6.50;;;3.92;;
31126;SDS011;17775;57.948;12.514;2023-06-24T14:47:21;6.93;;;4.13;;
31126;SDS011;17775;57.948;12.514;2023-06-24T14:49:48;6.15;;;3.63;;
31126;SDS011;17775;57.948;12.514;2023-06-24T14:52:14;7.13;;;3.65;;
31126;SDS011;17775;57.948;12.514;2023-06-24T14:54:40;6.38;;;3.97;;
31126;SDS011;17775;57.948;12.514;2023-06-24T14:57:07;7.43;;;3.25;;
31126;SDS011;17775;57.948;12.514;2023-06-24T14:59:34;6.72;;;3.90;;